createdAt,value
2022-11-10T00:01:10.438Z,97622.72
2022-11-10T00:03:38.859Z,97630.25
2022-11-10T00:06:07.304Z,97632.44
2022-11-10T00:08:34.444Z,97628.00
2022-11-10T00:11:08.273Z,97638.13
2022-11-10T00:13:57.170Z,97634.78
2022-11-10T00:16:42.592Z,97641.56
2022-11-10T00:19:09.687Z,97641.16
2022-11-10T00:21:37.216Z,97639.50
2022-11-10T00:24:04.396Z,97638.47
2022-11-10T00:26:31.503Z,97640.53
2022-11-10T00:28:58.055Z,97637.47
2022-11-10T00:31:24.639Z,97642.56
2022-11-10T00:33:51.207Z,97645.09
2022-11-10T00:36:17.697Z,97643.78
2022-11-10T00:38:44.229Z,97648.09
2022-11-10T00:41:10.853Z,97655.41
2022-11-10T00:43:39.867Z,97659.22
2022-11-10T00:46:08.485Z,97666.09
2022-11-10T00:48:35.299Z,97660.13
2022-11-10T00:51:04.064Z,97664.59
2022-11-10T00:53:30.574Z,97679.28
2022-11-10T00:55:57.141Z,97672.94
2022-11-10T00:58:23.889Z,97677.41
2022-11-10T01:00:50.455Z,97692.00
2022-11-10T01:03:17.956Z,97689.91
2022-11-10T01:05:44.725Z,97690.66
2022-11-10T01:08:11.918Z,97695.09
2022-11-10T01:10:38.516Z,97694.13
2022-11-10T01:13:05.104Z,97691.59
2022-11-10T01:15:31.702Z,97704.31
2022-11-10T01:17:58.252Z,97706.19
2022-11-10T01:20:27.176Z,97701.31
2022-11-10T01:22:53.687Z,97697.22
2022-11-10T01:25:22.846Z,97697.97
2022-11-10T01:27:52.860Z,97705.88
2022-11-10T01:30:19.911Z,97714.31
2022-11-10T01:32:46.453Z,97713.56
2022-11-10T01:35:12.934Z,97709.31
2022-11-10T01:37:40.653Z,97714.44
2022-11-10T01:40:08.258Z,97709.22
2022-11-10T01:42:51.908Z,97713.56
2022-11-10T01:45:24.734Z,97714.44
2022-11-10T01:47:54.825Z,97720.28
2022-11-10T01:50:25.258Z,97719.44
2022-11-10T01:52:55.492Z,97713.31
2022-11-10T01:55:23.528Z,97713.31
2022-11-10T01:57:55.553Z,97703.19
2022-11-10T02:00:23.219Z,97716.75
2022-11-10T02:02:56.636Z,97716.56
2022-11-10T02:05:24.189Z,97722.88
2022-11-10T02:07:51.853Z,97722.78
2022-11-10T02:10:20.767Z,97722.16
2022-11-10T02:12:49.769Z,97729.41
2022-11-10T02:15:18.450Z,97725.88
2022-11-10T02:17:48.519Z,97734.16
2022-11-10T02:20:21.053Z,97733.47
2022-11-10T02:22:47.761Z,97736.66
2022-11-10T02:25:17.548Z,97731.81
2022-11-10T02:27:46.399Z,97736.66
2022-11-10T02:30:13.363Z,97742.03
2022-11-10T02:32:39.918Z,97748.38
2022-11-10T02:35:10.043Z,97742.50
2022-11-10T02:37:36.619Z,97749.66
2022-11-10T02:40:03.837Z,97751.16
2022-11-10T02:42:30.379Z,97759.31
2022-11-10T02:44:57.623Z,97762.13
2022-11-10T02:47:24.144Z,97766.75
2022-11-10T02:49:50.723Z,97766.50
2022-11-10T02:52:17.224Z,97775.13
2022-11-10T02:54:43.724Z,97762.78
2022-11-10T02:57:10.262Z,97771.34
2022-11-10T02:59:39.836Z,97780.72
2022-11-10T03:02:06.329Z,97774.03
2022-11-10T03:04:32.877Z,97780.88
2022-11-10T03:07:01.696Z,97783.59
2022-11-10T03:09:30.344Z,97783.31
2022-11-10T03:11:56.874Z,97796.66
2022-11-10T03:14:23.383Z,97791.94
2022-11-10T03:16:49.897Z,97799.31
2022-11-10T03:19:19.028Z,97794.28
2022-11-10T03:21:45.546Z,97801.19
2022-11-10T03:24:12.261Z,97805.44
2022-11-10T03:26:40.987Z,97810.63
2022-11-10T03:29:07.519Z,97813.16
2022-11-10T03:31:34.049Z,97811.47
2022-11-10T03:34:00.611Z,97814.16
2022-11-10T03:36:27.144Z,97821.75
2022-11-10T03:38:53.692Z,97838.34
2022-11-10T03:41:20.944Z,97840.78
2022-11-10T03:43:50.581Z,97839.78
2022-11-10T03:46:19.872Z,97844.81
2022-11-10T03:48:53.639Z,97844.00
2022-11-10T03:51:25.025Z,97838.88
2022-11-10T03:53:51.610Z,97849.56
2022-11-10T03:56:18.201Z,97857.09
2022-11-10T03:58:44.724Z,97852.50
2022-11-10T04:01:11.463Z,97857.72
2022-11-10T04:03:38.039Z,97859.50
2022-11-10T04:06:26.749Z,97854.19
2022-11-10T04:09:01.905Z,97847.28
2022-11-10T04:11:48.524Z,97848.03
2022-11-10T04:14:34.003Z,97849.72
2022-11-10T04:17:01.647Z,97847.13
2022-11-10T04:19:31.516Z,97854.50
2022-11-10T04:22:00.367Z,97855.22
2022-11-10T04:24:31.914Z,97868.91
2022-11-10T04:26:58.498Z,97871.13
2022-11-10T04:29:27.303Z,97879.69
2022-11-10T04:31:53.828Z,97877.97
2022-11-10T04:34:20.331Z,97879.94
2022-11-10T04:36:49.318Z,97893.09
2022-11-10T04:39:18.113Z,97898.81
2022-11-10T04:41:44.766Z,97903.97
2022-11-10T04:44:11.307Z,97907.09
2022-11-10T04:46:39.754Z,97912.06
2022-11-10T04:49:07.760Z,97914.44
2022-11-10T04:51:36.968Z,97913.72
2022-11-10T04:54:04.825Z,97920.69
2022-11-10T04:56:34.926Z,97917.66
2022-11-10T04:59:01.576Z,97917.75
2022-11-10T05:01:28.394Z,97919.97
2022-11-10T05:03:55.824Z,97917.75
2022-11-10T05:06:22.754Z,97915.88
2022-11-10T05:08:50.120Z,97924.22
2022-11-10T05:11:17.298Z,97924.75
2022-11-10T05:13:44.881Z,97923.91
2022-11-10T05:16:12.104Z,97934.22
2022-11-10T05:18:38.737Z,97934.50
2022-11-10T05:21:05.410Z,97936.28
2022-11-10T05:23:41.753Z,97948.31
2022-11-10T05:26:13.937Z,97951.19
2022-11-10T05:28:42.272Z,97946.53
2022-11-10T05:31:09.138Z,97950.66
2022-11-10T05:33:36.575Z,97950.06
2022-11-10T05:36:03.735Z,97947.03
2022-11-10T05:38:30.360Z,97949.72
2022-11-10T05:40:57.135Z,97953.06
2022-11-10T05:43:26.798Z,97950.25
2022-11-10T05:45:53.479Z,97951.19
2022-11-10T05:48:20.239Z,97963.13
2022-11-10T05:50:49.705Z,97963.13
2022-11-10T05:53:16.235Z,97966.41
2022-11-10T05:55:47.364Z,97965.84
2022-11-10T05:58:16.373Z,97973.31
2022-11-10T06:00:42.999Z,97978.41
2022-11-10T06:03:16.296Z,97984.19
2022-11-10T06:05:42.927Z,97989.22
2022-11-10T06:08:09.832Z,97998.44
2022-11-10T06:10:37.812Z,98003.03
2022-11-10T06:13:05.058Z,98005.44
2022-11-10T06:15:31.687Z,98016.69
2022-11-10T06:17:58.716Z,98022.75
2022-11-10T06:20:26.199Z,98024.78
2022-11-10T06:23:04.517Z,98033.28
2022-11-10T06:25:34.200Z,98038.00
2022-11-10T06:28:01.048Z,98048.66
2022-11-10T06:30:29.267Z,98051.81
2022-11-10T06:32:56.338Z,98060.38
2022-11-10T06:35:23.890Z,98071.09
2022-11-10T06:38:01.718Z,98077.22
2022-11-10T06:40:29.986Z,98077.06
2022-11-10T06:42:58.728Z,98086.00
2022-11-10T06:45:28.318Z,98096.16
2022-11-10T06:48:05.657Z,98090.19
2022-11-10T06:50:35.275Z,98107.44
2022-11-10T06:53:02.155Z,98110.03
2022-11-10T06:55:32.367Z,98118.00
2022-11-10T06:57:59.068Z,98127.28
2022-11-10T07:00:29.610Z,98130.59
2022-11-10T07:03:05.066Z,98140.16
2022-11-10T07:05:33.594Z,98143.16
2022-11-10T07:08:13.651Z,98150.59
2022-11-10T07:10:40.127Z,98153.31
2022-11-10T07:13:06.673Z,98157.13
2022-11-10T07:15:34.182Z,98163.34
2022-11-10T07:18:02.539Z,98166.09
2022-11-10T07:20:30.275Z,98174.53
2022-11-10T07:23:00.735Z,98178.84
2022-11-10T07:25:28.963Z,98172.78
2022-11-10T07:27:56.886Z,98180.44
2022-11-10T07:30:23.435Z,98179.47
2022-11-10T07:33:06.478Z,98184.53
2022-11-10T07:35:34.524Z,98192.53
2022-11-10T07:38:12.149Z,98186.41
2022-11-10T07:40:39.412Z,98196.19
2022-11-10T07:43:06.301Z,98206.16
2022-11-10T07:45:33.626Z,98207.84
2022-11-10T07:48:05.880Z,98211.38
2022-11-10T07:50:33.813Z,98208.66
2022-11-10T07:53:07.484Z,98222.47
2022-11-10T07:55:34.874Z,98226.09
2022-11-10T07:58:01.337Z,98230.94
2022-11-10T08:00:30.718Z,98231.31
2022-11-10T08:03:26.817Z,98238.34
2022-11-10T08:05:53.388Z,98242.34
2022-11-10T08:08:22.172Z,98242.34
2022-11-10T08:10:48.644Z,98248.50
2022-11-10T08:13:15.157Z,98254.66
2022-11-10T08:15:41.590Z,98256.25
2022-11-10T08:18:23.657Z,98257.28
2022-11-10T08:20:50.211Z,98257.81
2022-11-10T08:23:17.894Z,98257.94
2022-11-10T08:25:44.954Z,98272.56
2022-11-10T08:28:19.533Z,98274.44
2022-11-10T08:30:47.940Z,98277.41
2022-11-10T08:33:16.987Z,98280.50
2022-11-10T08:35:48.668Z,98276.56
2022-11-10T08:38:20.452Z,98287.69
2022-11-10T08:40:47.489Z,98287.38
2022-11-10T08:43:17.828Z,98297.19
2022-11-10T08:45:45.283Z,98296.25
2022-11-10T08:48:20.425Z,98307.22
2022-11-10T08:50:50.413Z,98307.97
2022-11-10T08:53:23.519Z,98312.81
2022-11-10T08:55:51.362Z,98314.09
2022-11-10T08:58:21.179Z,98315.41
2022-11-10T09:00:48.370Z,98319.31
2022-11-10T09:03:18.812Z,98327.91
2022-11-10T09:05:46.819Z,98325.66
2022-11-10T09:08:13.617Z,98325.91
2022-11-10T09:10:45.943Z,98337.91
2022-11-10T09:13:15.243Z,98344.81
2022-11-10T09:15:43.452Z,98344.47
2022-11-10T09:18:15.372Z,98350.53
2022-11-10T09:20:42.282Z,98351.84
2022-11-10T09:23:17.110Z,98365.31
2022-11-10T09:25:51.904Z,98373.41
2022-11-10T09:28:19.156Z,98376.84
2022-11-10T09:30:47.231Z,98380.41
2022-11-10T09:33:13.830Z,98387.13
2022-11-10T09:35:40.974Z,98388.06
2022-11-10T09:38:07.699Z,98396.78
2022-11-10T09:41:07.603Z,98404.13
2022-11-10T09:43:34.039Z,98393.50
2022-11-10T09:46:06.549Z,98400.13
2022-11-10T09:48:41.857Z,98405.38
2022-11-10T09:51:29.500Z,98411.91
2022-11-10T09:54:06.082Z,98413.91
2022-11-10T09:56:35.212Z,98417.53
2022-11-10T09:59:07.563Z,98416.59
2022-11-10T10:01:54.972Z,98426.13
2022-11-10T10:04:51.829Z,98430.94
2022-11-10T10:07:25.910Z,98433.16
2022-11-10T10:10:02.329Z,98437.22
2022-11-10T10:12:43.931Z,98431.44
2022-11-10T10:15:16.458Z,98441.41
2022-11-10T10:17:48.825Z,98436.09
2022-11-10T10:20:27.924Z,98431.63
2022-11-10T10:23:09.591Z,98438.25
2022-11-10T10:25:39.623Z,98439.34
2022-11-10T10:28:17.112Z,98443.88
2022-11-10T10:30:46.423Z,98450.31
2022-11-10T10:33:18.785Z,98436.31
2022-11-10T10:35:47.623Z,98446.31
2022-11-10T10:38:26.594Z,98445.19
2022-11-10T10:41:09.826Z,98447.13
2022-11-10T10:43:36.693Z,98444.84
2022-11-10T10:46:15.786Z,98438.53
2022-11-10T10:48:42.821Z,98450.47
2022-11-10T10:51:09.570Z,98449.19
2022-11-10T10:53:47.548Z,98452.63
2022-11-10T10:56:20.177Z,98452.16
2022-11-10T10:58:56.350Z,98461.78
2022-11-10T11:01:30.783Z,98466.63
2022-11-10T11:03:58.543Z,98467.34
2022-11-10T11:06:28.656Z,98463.63
2022-11-10T11:08:59.972Z,98457.78
2022-11-10T11:11:38.852Z,98458.00
2022-11-10T11:14:30.946Z,98459.03
2022-11-10T11:17:19.156Z,98465.00
2022-11-10T11:19:45.778Z,98464.19
2022-11-10T11:22:39.831Z,98471.81
2022-11-10T11:25:26.955Z,98468.81
2022-11-10T11:28:10.852Z,98471.16
2022-11-10T11:30:58.182Z,98470.88
2022-11-10T11:33:30.755Z,98469.88
2022-11-10T11:36:08.957Z,98471.03
2022-11-10T11:38:56.373Z,98470.25
2022-11-10T11:41:45.190Z,98470.16
2022-11-10T11:44:24.906Z,98472.50
2022-11-10T11:47:25.376Z,98471.59
2022-11-10T11:49:58.725Z,98474.88
2022-11-10T11:52:38.487Z,98484.28
2022-11-10T11:55:28.993Z,98485.34
2022-11-10T11:58:40.589Z,98480.38
2022-11-10T12:01:25.771Z,98468.88
2022-11-10T12:04:04.257Z,98473.31
2022-11-10T12:06:52.011Z,98478.31
2022-11-10T12:09:39.875Z,98471.56
2022-11-10T12:12:12.480Z,98467.63
2022-11-10T12:14:44.980Z,98463.19
2022-11-10T12:17:29.665Z,98464.63
2022-11-10T12:20:20.714Z,98464.47
2022-11-10T12:22:52.698Z,98479.84
2022-11-10T12:25:36.394Z,98474.00
2022-11-10T12:28:36.172Z,98473.25
2022-11-10T12:31:06.029Z,98481.44
2022-11-10T12:33:46.565Z,98492.31
2022-11-10T12:36:15.289Z,98485.88
2022-11-10T12:38:59.670Z,98488.13
2022-11-10T12:41:40.042Z,98478.22
2022-11-10T12:44:26.538Z,98466.66
2022-11-10T12:46:56.899Z,98471.06
2022-11-10T12:49:35.012Z,98468.00
2022-11-10T12:52:22.786Z,98468.88
2022-11-10T12:54:51.619Z,98477.16
2022-11-10T12:57:22.521Z,98476.53
2022-11-10T12:59:53.541Z,98469.38
2022-11-10T13:02:40.438Z,98465.09
2022-11-10T13:05:24.320Z,98459.38
2022-11-10T13:08:07.141Z,98455.75
2022-11-10T13:10:34.091Z,98454.56
2022-11-10T13:13:03.754Z,98459.19
2022-11-10T13:15:39.137Z,98463.56
2022-11-10T13:18:22.121Z,98465.41
2022-11-10T13:20:50.413Z,98472.19
2022-11-10T13:23:26.823Z,98473.56
2022-11-10T13:25:55.249Z,98470.84
2022-11-10T13:28:46.945Z,98472.91
2022-11-10T13:31:28.663Z,98475.69
2022-11-10T13:34:04.456Z,98477.78
2022-11-10T13:36:40.276Z,98484.94
2022-11-10T13:39:16.184Z,98489.84
2022-11-10T13:41:47.356Z,98491.91
2022-11-10T13:44:36.224Z,98493.81
2022-11-10T13:47:08.845Z,98502.22
2022-11-10T13:49:53.666Z,98493.31
2022-11-10T13:52:28.908Z,98493.25
2022-11-10T13:55:34.737Z,98480.88
2022-11-10T13:58:09.517Z,98496.44
2022-11-10T14:00:37.162Z,98503.78
2022-11-10T14:03:10.278Z,98504.94
2022-11-10T14:05:41.901Z,98501.81
2022-11-10T14:08:19.768Z,98501.09
2022-11-10T14:10:59.898Z,98506.72
2022-11-10T14:13:32.207Z,98508.63
2022-11-10T14:15:59.304Z,98506.72
2022-11-10T14:18:37.093Z,98505.66
2022-11-10T14:21:03.893Z,98502.22
2022-11-10T14:23:45.738Z,98500.66
2022-11-10T14:26:30.414Z,98505.03
2022-11-10T14:28:59.386Z,98507.66
2022-11-10T14:31:26.411Z,98502.00
2022-11-10T14:33:55.370Z,98508.22
2022-11-10T14:36:22.543Z,98500.34
2022-11-10T14:38:52.778Z,98498.88
2022-11-10T14:41:24.732Z,98496.34
2022-11-10T14:44:05.698Z,98498.38
2022-11-10T14:46:32.341Z,98501.09
2022-11-10T14:49:01.941Z,98494.78
2022-11-10T14:51:29.714Z,98499.94
2022-11-10T14:53:58.165Z,98503.91
2022-11-10T14:56:30.259Z,98498.81
2022-11-10T14:58:59.194Z,98502.72
2022-11-10T15:01:33.628Z,98500.28
2022-11-10T15:04:02.524Z,98505.59
2022-11-10T15:06:30.670Z,98515.44
2022-11-10T15:08:57.556Z,98519.72
2022-11-10T15:12:01.254Z,98516.84
2022-11-10T15:14:37.131Z,98511.47
2022-11-10T15:17:09.276Z,98511.31
2022-11-10T15:19:39.296Z,98516.09
2022-11-10T15:22:12.786Z,98520.25
2022-11-10T15:24:47.896Z,98521.44
2022-11-10T15:27:24.376Z,98519.53
2022-11-10T15:29:51.743Z,98515.66
2022-11-10T15:32:23.622Z,98520.34
2022-11-10T15:34:51.029Z,98519.78
2022-11-10T15:37:30.568Z,98523.63
2022-11-10T15:40:30.385Z,98516.81
2022-11-10T15:43:30.303Z,98520.97
2022-11-10T15:46:03.125Z,98528.16
2022-11-10T15:48:38.895Z,98529.06
2022-11-10T15:51:14.323Z,98534.63
2022-11-10T15:53:46.907Z,98542.66
2022-11-10T15:56:17.216Z,98538.38
2022-11-10T15:59:01.835Z,98541.34
2022-11-10T16:01:31.729Z,98547.06
2022-11-10T16:04:00.560Z,98550.19
2022-11-10T16:06:27.509Z,98554.16
2022-11-10T16:08:59.254Z,98552.47
2022-11-10T16:11:26.422Z,98551.44
2022-11-10T16:13:54.739Z,98559.38
2022-11-10T16:16:24.102Z,98566.63
2022-11-10T16:18:51.804Z,98568.13
2022-11-10T16:21:26.234Z,98571.44
2022-11-10T16:23:53.312Z,98579.94
2022-11-10T16:26:24.124Z,98582.47
2022-11-10T16:28:51.161Z,98583.34
2022-11-10T16:31:19.847Z,98588.22
2022-11-10T16:33:47.081Z,98588.25
2022-11-10T16:36:23.343Z,98584.94
2022-11-10T16:38:50.230Z,98585.03
2022-11-10T16:41:16.925Z,98593.81
2022-11-10T16:43:43.518Z,98598.16
2022-11-10T16:46:24.394Z,98610.50
2022-11-10T16:48:55.687Z,98622.94
2022-11-10T16:51:29.328Z,98631.41
2022-11-10T16:53:56.804Z,98640.34
2022-11-10T16:56:23.640Z,98646.16
2022-11-10T16:58:50.306Z,98641.22
2022-11-10T17:01:21.520Z,98634.00
2022-11-10T17:03:52.125Z,98634.94
2022-11-10T17:06:22.023Z,98635.84
2022-11-10T17:08:52.062Z,98643.59
2022-11-10T17:11:19.168Z,98641.53
2022-11-10T17:13:45.959Z,98650.94
2022-11-10T17:16:37.703Z,98652.53
2022-11-10T17:19:07.506Z,98658.13
2022-11-10T17:21:36.291Z,98657.81
2022-11-10T17:24:04.073Z,98663.38
2022-11-10T17:26:33.947Z,98666.66
2022-11-10T17:29:00.496Z,98676.72
2022-11-10T17:31:27.091Z,98678.75
2022-11-10T17:33:53.895Z,98682.91
2022-11-10T17:36:24.609Z,98679.41
2022-11-10T17:38:52.310Z,98690.91
2022-11-10T17:41:20.229Z,98688.69
2022-11-10T17:43:47.322Z,98691.00
2022-11-10T17:46:16.241Z,98700.06
2022-11-10T17:48:43.043Z,98698.59
2022-11-10T17:51:18.305Z,98704.56
2022-11-10T17:53:45.370Z,98699.69
2022-11-10T17:56:12.072Z,98705.28
2022-11-10T17:58:38.736Z,98705.16
2022-11-10T18:01:31.796Z,98709.78
2022-11-10T18:03:58.523Z,98708.41
2022-11-10T18:06:25.167Z,98704.03
2022-11-10T18:08:54.067Z,98709.38
2022-11-10T18:11:20.702Z,98711.78
2022-11-10T18:13:47.350Z,98715.50
2022-11-10T18:16:14.208Z,98712.94
2022-11-10T18:18:42.968Z,98732.47
2022-11-10T18:21:12.387Z,98737.13
2022-11-10T18:23:39.169Z,98730.31
2022-11-10T18:26:07.977Z,98736.41
2022-11-10T18:28:35.783Z,98735.50
2022-11-10T18:31:09.933Z,98745.50
2022-11-10T18:33:37.029Z,98746.69
2022-11-10T18:36:04.017Z,98756.47
2022-11-10T18:38:30.701Z,98751.69
2022-11-10T18:41:21.982Z,98750.38
2022-11-10T18:43:48.720Z,98752.53
2022-11-10T18:46:15.404Z,98751.09
2022-11-10T18:48:42.512Z,98749.03
2022-11-10T18:51:09.159Z,98741.44
2022-11-10T18:53:38.449Z,98741.91
2022-11-10T18:56:05.562Z,98747.44
2022-11-10T18:58:32.238Z,98744.91
2022-11-10T19:01:09.345Z,98737.41
2022-11-10T19:03:36.883Z,98726.28
2022-11-10T19:06:04.585Z,98731.31
2022-11-10T19:08:31.166Z,98726.13
2022-11-10T19:10:57.894Z,98725.16
2022-11-10T19:13:24.711Z,98725.91
2022-11-10T19:15:51.876Z,98729.38
2022-11-10T19:18:18.367Z,98743.84
2022-11-10T19:20:45.017Z,98739.69
2022-11-10T19:23:11.580Z,98742.69
2022-11-10T19:25:38.219Z,98743.69
2022-11-10T19:28:11.335Z,98744.41
2022-11-10T19:30:39.426Z,98748.38
2022-11-10T19:33:06.343Z,98752.88
2022-11-10T19:35:33.333Z,98738.47
2022-11-10T19:38:00.266Z,98748.97
2022-11-10T19:40:27.286Z,98749.38
2022-11-10T19:42:54.050Z,98760.34
2022-11-10T19:45:20.953Z,98762.13
2022-11-10T19:47:47.681Z,98764.78
2022-11-10T19:50:16.755Z,98771.44
2022-11-10T19:52:43.405Z,98769.97
2022-11-10T19:55:10.230Z,98772.88
2022-11-10T19:57:37.047Z,98784.25
2022-11-10T20:00:07.300Z,98783.06
2022-11-10T20:02:34.291Z,98789.25
2022-11-10T20:05:13.529Z,98794.19
2022-11-10T20:07:58.738Z,98802.06
2022-11-10T20:10:25.418Z,98808.78
2022-11-10T20:12:52.161Z,98808.84
2022-11-10T20:15:18.716Z,98801.75
2022-11-10T20:17:45.283Z,98810.28
2022-11-10T20:20:14.425Z,98803.56
2022-11-10T20:22:44.196Z,98805.66
2022-11-10T20:25:10.842Z,98796.03
2022-11-10T20:27:37.929Z,98798.38
2022-11-10T20:30:05.538Z,98801.91
2022-11-10T20:32:32.432Z,98798.69
2022-11-10T20:35:00.183Z,98794.50
2022-11-10T20:37:26.912Z,98802.16
2022-11-10T20:39:53.438Z,98799.09
2022-11-10T20:42:20.005Z,98801.56
2022-11-10T20:44:46.561Z,98810.38
2022-11-10T20:47:15.646Z,98808.88
2022-11-10T20:49:47.149Z,98814.13
2022-11-10T20:52:13.821Z,98816.97
2022-11-10T20:54:43.688Z,98819.97
2022-11-10T20:57:10.761Z,98831.31
2022-11-10T20:59:37.333Z,98828.53
2022-11-10T21:02:08.947Z,98822.47
2022-11-10T21:04:40.304Z,98821.00
2022-11-10T21:07:09.283Z,98823.75
2022-11-10T21:09:35.892Z,98818.09
2022-11-10T21:12:21.093Z,98827.50
2022-11-10T21:14:47.693Z,98841.44
2022-11-10T21:17:14.262Z,98846.47
2022-11-10T21:19:40.973Z,98836.53
2022-11-10T21:22:07.553Z,98843.75
2022-11-10T21:24:34.117Z,98843.19
2022-11-10T21:27:00.718Z,98844.09
2022-11-10T21:29:27.294Z,98840.88
2022-11-10T21:31:53.876Z,98837.22
2022-11-10T21:34:20.545Z,98842.22
2022-11-10T21:36:49.597Z,98840.97
2022-11-10T21:39:16.298Z,98838.63
2022-11-10T21:41:42.837Z,98829.66
2022-11-10T21:44:09.432Z,98833.16
2022-11-10T21:46:38.623Z,98841.13
2022-11-10T21:49:07.811Z,98835.59
2022-11-10T21:51:34.951Z,98841.50
2022-11-10T21:54:03.742Z,98844.00
2022-11-10T21:56:30.292Z,98839.00
2022-11-10T21:58:57.851Z,98843.59
2022-11-10T22:01:24.460Z,98843.59
2022-11-10T22:03:51.071Z,98840.09
2022-11-10T22:06:18.919Z,98841.78
2022-11-10T22:08:47.404Z,98833.72
2022-11-10T22:11:41.571Z,98839.06
2022-11-10T22:14:30.956Z,98839.78
2022-11-10T22:17:16.284Z,98833.38
2022-11-10T22:19:44.497Z,98824.56
2022-11-10T22:22:14.297Z,98837.06
2022-11-10T22:24:41.297Z,98842.69
2022-11-10T22:27:08.311Z,98845.75
2022-11-10T22:29:34.943Z,98840.81
2022-11-10T22:32:03.966Z,98844.06
2022-11-10T22:34:30.521Z,98853.88
2022-11-10T22:36:59.325Z,98852.50
2022-11-10T22:39:48.271Z,98848.94
2022-11-10T22:42:33.226Z,98847.53
2022-11-10T22:44:59.766Z,98857.13
2022-11-10T22:47:46.274Z,98873.56
2022-11-10T22:50:12.838Z,98873.66
2022-11-10T22:52:39.345Z,98867.75
2022-11-10T22:55:06.099Z,98868.63
2022-11-10T22:57:34.833Z,98864.53
2022-11-10T23:00:01.443Z,98861.84
2022-11-10T23:02:28.079Z,98865.47
2022-11-10T23:04:54.627Z,98866.22
2022-11-10T23:07:25.289Z,98862.91
2022-11-10T23:09:51.806Z,98862.91
2022-11-10T23:12:18.454Z,98866.34
2022-11-10T23:14:45.011Z,98868.81
2022-11-10T23:17:11.556Z,98865.63
2022-11-10T23:19:38.087Z,98864.72
2022-11-10T23:22:04.614Z,98861.00
2022-11-10T23:24:31.199Z,98857.28
2022-11-10T23:26:57.737Z,98852.69
2022-11-10T23:29:27.091Z,98855.13
2022-11-10T23:31:53.636Z,98848.34
2022-11-10T23:34:22.560Z,98855.13
2022-11-10T23:36:49.093Z,98852.66
2022-11-10T23:39:15.672Z,98862.03
2022-11-10T23:41:42.182Z,98854.69
2022-11-10T23:44:08.763Z,98851.41
2022-11-10T23:46:37.511Z,98856.22
2022-11-10T23:49:04.204Z,98847.47
2022-11-10T23:51:30.759Z,98850.53
2022-11-10T23:53:57.375Z,98846.41
2022-11-10T23:56:23.977Z,98851.75
2022-11-10T23:58:50.547Z,98844.84
